Terminal Aerodrome Forecast
Issued by NWS

Home | Current Version | Previous Version | Graphics & Text | Print | Product List | Glossary On
Versions: 1 2 3 4 5 6 7 8 9 10 11 12 13 14 15 16 17 18
407
FTUS43 KGRB 241343 AAA
TAFMTW
TAF AMD
KMTW 241343Z 2414/2512 20011KT 5SM -SHRA SCT006 OVC019
      TEMPO 2414/2416 2SM +TSRA BKN006CB
     FM241700 24010KT P6SM BKN035
     FM241900 24010G20KT P6SM SCT050
      TEMPO 2419/2422 2SM TSRA BKN025CB
     FM242200 26012G20KT P6SM SCT100
     FM250200 28008KT P6SM FEW250=

USA.gov is the U.S. government's official web portal to all federal, state and local government web resources and services.